KSBN/SBN METAR and TAF weather

Enter ICAO airport designator
Station Type Date Time Source
KSBN METAR 2020/06/03 22:54 UTC NOAA

KSBN 032254Z 20003KT 10SM FEW085 26/15 A2980 RMK AO2 SLP085 T02610150


Station Type Date Time Source
KSBN Decoded METAR 2020/06/03 22:54 UTC NOAA

SOUTH BEND REGIONAL AIRPORT, IN, United States (KSBN) 41-42N 086-19W 237M
Jun 03, 2020 - 06:54 PM EDT / 2020.06.03 2254 UTC
Wind: from the SSW (200 degrees) at 3 MPH (3 KT):0
Visibility: 10 mile(s):0
Sky conditions: mostly clear
Temperature: 79.0 F (26.1 C)
Dew Point: 59.0 F (15.0 C)
Relative Humidity: 50%
Pressure (altimeter): 29.8 in. Hg (1009 hPa)
ob: KSBN 032254Z 20003KT 10SM FEW085 26/15 A2980 RMK AO2 SLP085 T02610150
cycle: 23

Station Type Date Time Source
KSBN TAF 2020/06/03 18:34 UTC NOAA

TAF KSBN 031731Z 0318/0418 31008KT P6SM VCSH BKN100
FM032300 VRB02KT P6SM BKN070
FM040900 VRB02KT 4SM BR SCT070
FM041200 VRB03KT P6SM FEW200

Example: see airport list